Dutch Harbor, AK

11:17 PM AKDT on September 19, 2014 (GMT -0800)
Saint George | Change Station
CLOSE
Current Station
Airport
Location: St. George,
Elevation: 125 ft
Nearby Weather Stations

Elev 125 ft 56.58 °N, 169.66 °W | Updated 16 minutes ago

Overcast
Overcast
49 °F
Feels Like 49 °F
N
13
Wind Variable Wind from NNW

Today
High -- | Low -- °F
--% Chance of Precip.
Yesterday
High -- | Low -- °F
Precip. -- in
8:48 AM 9:13 PM
Waning Crescent, 14% visible
Pressure 29.87 in
Visibility 10.0 miles
Clouds Overcast 2900 ft
Dew Point 41 °F
Humidity 74%
Rainfall 0.01 in
Snow Depth 0 in , 6 in , 1 in
UV 0 out of 12
Pollen Not available.
Air Quality Not available.
Flu Activity Not available.
SPECI PAPB 200701Z AUTO 33011KT 10SM OVC029 09/05 A2987 RMK AO2 T00940050 TSNO $

More Conditions Fewer Conditions

Pressure 29.87 in
Visibility 10.0 miles
Clouds Overcast 2900 ft
Dew Point 41 °F
Humidity 74%
Rainfall 0.01 in
Snow Depth 0 in , 6 in , 1 in
UV 0 out of 12
Pollen Not available.
Air Quality Not available.
Flu Activity Not available.
SPECI PAPB 200701Z AUTO 33011KT 10SM OVC029 09/05 A2987 RMK AO2 T00940050 TSNO $

More Conditions Fewer Conditions

10-Day Weather Forecast

Almanac

Astronomy

Sep. 19, 2014 Rise Set
Actual Time 8:48 AM AKDT 9:13 PM AKDT
Civil Twilight 8:13 AM AKDT 9:48 PM AKDT
Nautical Twilight 7:31 AM AKDT 10:29 PM AKDT
Astronomical Twilight 6:47 AM AKDT 11:13 PM AKDT
Moon 4:17 AM AKDT (9/19) 7:13 PM AKDT (9/19)
Length of Visible Light 13h 34m
Length of Day
12h 24m
Tomorrow will be 4m 13s shorter.
Waning Crescent, 14% of the Moon is Illuminated
Sep 20
Waning Crescent
Sep 24
New
Oct 1
First Quarter
Oct 8
Full
Oct 15
Last Quarter

Community

WunderPhotos

Upload Photos

1,754,792 photos uploaded!

WunderBlogs® & News

Nearby

Snow Depth

Station Depth Elevation
Moraine 0 in 2100 ft
Rocky Point 6 in 500 ft
Susitna Valley High 1 in 375 ft
Mcneil Canyon 1 in 1320 ft
Long Lake 0 in 820 ft

Earthquake Activity

City Distance Mag. Time & Date
No recent earthquake activity has been reported nearby.
Minimum magnitude displayed is 2.5.

Coastal Water Temperatures

Place Temperature
No Stations Reporting

Nearby Weather Stations